AFL7432 UUEW-UUEE
Flight info
| Callsign | AFL7432 |
|---|---|
| Flight time | N/A |
| Altitude | 5000 |
| Route | VECTORS/24C GIGUN DCT ASLEK DCT BUPOS DCT ORSIF DCT MEZER DCT NALFI DCT RAMZA DCT UKABE DCT FIDOT DCT RORUK DCT UUWW DCT LIKNI DCT GIGUN DCT NUZOR DCT PUFIK DCT ROLAZ DCT RIZNO DCT BEGEZ DCT LUNZA DCT EE048 DCT EE049 DCT EE050 DCT EE051 DCT TAFAZ DCT KEZVU |
| Aircraft | B77W/H-SDE1E2E3FGHIJ2J3J4J5M1RWXY/LB1D1 |
Departure
| Time | N/A |
|---|---|
| Airport | UUEW |
Arrival
| Time | 2026-04-30 18:36 |
|---|---|
| Airport | Sheremetyevo International Airport (UUEE) |
| Time | Latitude | Longitude | Altitude | Speed | Heading |
|---|---|---|---|---|---|
| 2026-04-30 18:15 | 55.73233 | 36.95405 | 5006 ft | 255 kts | 340° |
| 2026-04-30 18:16 | 55.76559 | 36.93191 | 5009 ft | 255 kts | 338° |
| 2026-04-30 18:16 | 55.79866 | 36.90870 | 5008 ft | 255 kts | 337° |
| 2026-04-30 18:17 | 55.81309 | 36.89226 | 5008 ft | 252 kts | 311° |
| 2026-04-30 18:17 | 55.82155 | 36.86485 | 5020 ft | 258 kts | 287° |
| 2026-04-30 18:17 | 55.82898 | 36.80238 | 5017 ft | 258 kts | 283° |
| 2026-04-30 18:18 | 55.83619 | 36.77429 | 5008 ft | 251 kts | 314° |
| 2026-04-30 18:18 | 55.85118 | 36.75936 | 5020 ft | 253 kts | 350° |
| 2026-04-30 18:18 | 55.86844 | 36.76341 | 5019 ft | 258 kts | 25° |
| 2026-04-30 18:18 | 55.88140 | 36.78524 | 5024 ft | 263 kts | 61° |
| 2026-04-30 18:19 | 55.88529 | 36.81685 | 5052 ft | 259 kts | 85° |
| 2026-04-30 18:19 | 55.89068 | 36.84686 | 5120 ft | 261 kts | 56° |
| 2026-04-30 18:19 | 55.90337 | 36.86993 | 5064 ft | 263 kts | 30° |
| 2026-04-30 18:19 | 55.92013 | 36.88169 | 5019 ft | 258 kts | 14° |
| 2026-04-30 18:20 | 55.93753 | 36.88952 | 5006 ft | 257 kts | 12° |
| 2026-04-30 18:20 | 55.95487 | 36.89682 | 5003 ft | 256 kts | 12° |
| 2026-04-30 18:20 | 55.97212 | 36.90399 | 5004 ft | 255 kts | 12° |
| 2026-04-30 18:20 | 55.98939 | 36.91111 | 5006 ft | 254 kts | 12° |
| 2026-04-30 18:21 | 56.00669 | 36.91818 | 5010 ft | 254 kts | 12° |
| 2026-04-30 18:21 | 56.02396 | 36.92523 | 5010 ft | 255 kts | 12° |
| 2026-04-30 18:21 | 56.04133 | 36.93232 | 5011 ft | 256 kts | 12° |
| 2026-04-30 18:21 | 56.05727 | 36.94513 | 5004 ft | 257 kts | 41° |
| 2026-04-30 18:22 | 56.06703 | 36.97195 | 5015 ft | 261 kts | 66° |
| 2026-04-30 18:22 | 56.08101 | 37.03296 | 5010 ft | 265 kts | 65° |
| 2026-04-30 18:22 | 56.08832 | 37.06285 | 5003 ft | 265 kts | 65° |
| 2026-04-30 18:23 | 56.09589 | 37.09290 | 5002 ft | 264 kts | 64° |
| 2026-04-30 18:23 | 56.10365 | 37.12310 | 5000 ft | 264 kts | 64° |
| 2026-04-30 18:23 | 56.11129 | 37.15248 | 5000 ft | 263 kts | 64° |
| 2026-04-30 18:23 | 56.11901 | 37.18203 | 4999 ft | 262 kts | 63° |
| 2026-04-30 18:24 | 56.13456 | 37.24107 | 5001 ft | 261 kts | 63° |
| 2026-04-30 18:24 | 56.14233 | 37.27052 | 5003 ft | 261 kts | 63° |
| 2026-04-30 18:24 | 56.15007 | 37.29993 | 4883 ft | 261 kts | 63° |
| 2026-04-30 18:25 | 56.15787 | 37.32954 | 4649 ft | 267 kts | 64° |
| 2026-04-30 18:25 | 56.16903 | 37.39157 | 4111 ft | 260 kts | 75° |
| 2026-04-30 18:25 | 56.17331 | 37.42294 | 3798 ft | 258 kts | 75° |
| 2026-04-30 18:26 | 56.18229 | 37.48510 | 3142 ft | 256 kts | 74° |
| 2026-04-30 18:26 | 56.18687 | 37.51600 | 2825 ft | 255 kts | 74° |
| 2026-04-30 18:26 | 56.19142 | 37.54659 | 2585 ft | 251 kts | 74° |
| 2026-04-30 18:27 | 56.18754 | 37.60459 | 2493 ft | 235 kts | 125° |
| 2026-04-30 18:27 | 56.17693 | 37.62556 | 2485 ft | 220 kts | 134° |
| 2026-04-30 18:28 | 56.15673 | 37.66231 | 2481 ft | 198 kts | 134° |
| 2026-04-30 18:28 | 56.14698 | 37.68010 | 2503 ft | 201 kts | 134° |
| 2026-04-30 18:28 | 56.12762 | 37.71546 | 2494 ft | 197 kts | 134° |
| 2026-04-30 18:29 | 56.11802 | 37.73301 | 2491 ft | 197 kts | 134° |
| 2026-04-30 18:29 | 56.08619 | 37.77361 | 2488 ft | 190 kts | 190° |
| 2026-04-30 18:30 | 56.06125 | 37.75987 | 2515 ft | 189 kts | 198° |
| 2026-04-30 18:30 | 56.03628 | 37.74580 | 2484 ft | 187 kts | 198° |
| 2026-04-30 18:31 | 56.02418 | 37.73803 | 2474 ft | 181 kts | 212° |
| 2026-04-30 18:31 | 56.01359 | 37.69879 | 2522 ft | 184 kts | 257° |
| 2026-04-30 18:32 | 56.00745 | 37.65515 | 2474 ft | 176 kts | 262° |
| 2026-04-30 18:32 | 56.00554 | 37.63424 | 2231 ft | 165 kts | 261° |
| 2026-04-30 18:32 | 56.00130 | 37.59909 | 2142 ft | 133 kts | 257° |
| 2026-04-30 18:33 | 55.99996 | 37.59039 | 2146 ft | 135 kts | 256° |
| 2026-04-30 18:33 | 55.99575 | 37.56279 | 1975 ft | 129 kts | 257° |
| 2026-04-30 18:33 | 55.99344 | 37.54704 | 1908 ft | 133 kts | 257° |
| 2026-04-30 18:34 | 55.99108 | 37.53088 | 1758 ft | 137 kts | 256° |
| 2026-04-30 18:34 | 55.98615 | 37.49809 | 1468 ft | 139 kts | 256° |
| 2026-04-30 18:34 | 55.98393 | 37.48203 | 1176 ft | 126 kts | 258° |
| 2026-04-30 18:35 | 55.98168 | 37.46655 | 1018 ft | 132 kts | 256° |
| 2026-04-30 18:35 | 55.97934 | 37.45073 | 793 ft | 130 kts | 256° |
| 2026-04-30 18:35 | 55.97705 | 37.43533 | 654 ft | 124 kts | 256° |
| 2026-04-30 18:36 | 55.97432 | 37.41691 | 646 ft | 37 kts | 256° |
| 2026-04-30 18:36 | 55.97391 | 37.41411 | 648 ft | 15 kts | 255° |
| 2026-04-30 18:36 | 55.97421 | 37.41224 | 651 ft | 10 kts | 344° |
| 2026-04-30 18:37 | 55.97481 | 37.41195 | 652 ft | 6 kts | 344° |
| 2026-04-30 18:37 | 55.97543 | 37.41187 | 647 ft | 13 kts | 351° |
| 2026-04-30 18:37 | 55.97611 | 37.41073 | 648 ft | 11 kts | 301° |
| 2026-04-30 18:37 | 55.97667 | 37.41026 | 646 ft | 10 kts | 34° |
| 2026-04-30 18:38 | 55.97697 | 37.41064 | 649 ft | 0 kts | 32° |